Time;durP1;ratioP1;P1;durP2;ratioP2;P2;SDS_P1;SDS_P2;PMS_P1;PMS_P2;Temp;Humidity;BMP_temperature;BMP_pressure;BME280_temperature;BME280_humidity;BME280_pressure;Samples;Min_cycle;Max_cycle;Signal;HPM_P1;HPM_P2
2022/09/11 00:00:52;;;;;;;9.27;4.28;;;;;;;20.77;59.97;100952.06;5027279;27;98720;-68
2022/09/11 00:03:20;;;;;;;7.43;4.10;;;;;;;20.34;61.33;100958.91;5024577;28;97320;-68
2022/09/11 00:05:46;;;;;;;10.00;4.05;;;;;;;20.19;61.56;100960.81;5024439;28;98994;-68
2022/09/11 00:08:17;;;;;;;6.18;4.28;;;;;;;20.21;61.76;100953.53;5026621;27;101244;-68
2022/09/11 00:10:45;;;;;;;6.32;4.13;;;;;;;20.07;62.14;100962.56;5026502;28;98667;-67
2022/09/11 00:13:14;;;;;;;7.72;5.03;;;;;;;19.94;62.58;100963.56;5025788;27;96932;-68
2022/09/11 00:15:42;;;;;;;5.75;3.90;;;;;;;20.02;62.67;100966.56;5022456;27;99032;-66
2022/09/11 00:18:11;;;;;;;7.63;6.20;;;;;;;20.26;61.61;100970.16;5032886;27;100291;-67
2022/09/11 00:20:49;;;;;;;11.38;6.90;;;;;;;20.33;61.18;100967.91;5030627;27;98104;-68
2022/09/11 00:23:17;;;;;;;4.90;4.10;;;;;;;20.55;60.40;100963.53;5023889;27;97817;-67
2022/09/11 00:25:47;;;;;;;6.72;3.85;;;;;;;20.69;59.82;100967.88;5021803;27;97836;-67
2022/09/11 00:28:15;;;;;;;9.65;3.80;;;;;;;20.55;60.12;100965.34;5026543;27;102238;-67
2022/09/11 00:30:43;;;;;;;10.35;4.32;;;;;;;20.49;60.62;100968.50;5024477;27;96911;-67
2022/09/11 00:33:11;;;;;;;7.63;4.20;;;;;;;20.49;60.75;100957.75;5023998;27;97429;-67
2022/09/11 00:35:38;;;;;;;5.53;3.80;;;;;;;20.61;60.21;100962.25;5024870;27;99332;-67
2022/09/11 00:38:07;;;;;;;6.53;4.07;;;;;;;20.68;59.65;100969.72;5028865;27;99342;-68
2022/09/11 00:40:45;;;;;;;6.97;4.43;;;;;;;20.54;60.26;100966.34;5027642;27;96889;-67
2022/09/11 00:43:14;;;;;;;8.25;4.40;;;;;;;20.72;59.31;100965.00;5025985;27;97468;-68
2022/09/11 00:45:43;;;;;;;7.10;4.03;;;;;;;20.74;59.35;100968.44;5025909;27;97666;-68
2022/09/11 00:48:13;;;;;;;7.60;4.70;;;;;;;20.43;60.25;100966.25;5023859;27;99832;-68
2022/09/11 00:50:43;;;;;;;9.77;4.65;;;;;;;20.48;60.06;100961.44;5026148;27;98567;-66
2022/09/11 00:53:14;;;;;;;10.10;4.22;;;;;;;20.44;60.33;100966.16;5032052;28;96873;-66
2022/09/11 00:55:49;;;;;;;6.60;4.78;;;;;;;20.12;61.60;100965.78;5025340;27;99619;-65
2022/09/11 00:58:18;;;;;;;6.90;4.25;;;;;;;20.43;60.29;100964.44;5025335;27;99137;-66
2022/09/11 01:00:45;;;;;;;8.25;4.90;;;;;;;20.57;59.96;100960.75;5028967;27;96918;-66
2022/09/11 01:03:12;;;;;;;6.93;4.20;;;;;;;20.53;60.04;100967.31;5030391;28;96919;-66
2022/09/11 01:05:41;;;;;;;6.13;4.10;;;;;;;20.72;59.25;100962.31;5032099;27;101407;-65
2022/09/11 01:08:07;;;;;;;5.05;3.97;;;;;;;20.35;60.18;100968.66;5028493;28;99285;-65
2022/09/11 01:10:44;;;;;;;5.22;4.07;;;;;;;20.09;61.28;100970.47;5028284;27;96929;-67
2022/09/11 01:13:20;;;;;;;7.47;4.22;;;;;;;19.80;62.66;100970.75;5031111;28;96893;-67
2022/09/11 01:16:01;;;;;;;7.15;4.22;;;;;;;19.89;62.10;100977.25;5028626;27;98003;-69
2022/09/11 01:18:34;;;;;;;8.70;4.25;;;;;;;19.76;62.44;100973.72;5030211;28;98885;-66
2022/09/11 01:21:18;;;;;;;4.57;3.90;;;;;;;19.67;62.95;100982.44;5029038;27;96808;-66
2022/09/11 01:24:21;;;;;;;5.78;3.90;;;;;;;19.59;63.08;100985.63;5029986;28;96722;-67
2022/09/11 01:27:02;;;;;;;8.40;4.40;;;;;;;19.92;61.77;100979.75;5012363;28;98977;-68
2022/09/11 01:29:38;;;;;;;9.40;4.35;;;;;;;20.25;60.85;100976.47;5025038;28;98800;-66
2022/09/11 01:32:13;;;;;;;5.32;3.88;;;;;;;19.99;61.38;100982.84;5030358;28;97681;-66
2022/09/11 01:34:52;;;;;;;6.82;4.00;;;;;;;20.04;61.32;100972.66;5033281;28;96693;-66
2022/09/11 01:37:27;;;;;;;9.05;4.38;;;;;;;20.28;60.00;100976.28;5026607;28;99507;-66
2022/09/11 01:40:03;;;;;;;7.13;4.50;;;;;;;20.35;59.98;100980.22;5028442;28;98888;-66
2022/09/11 01:42:33;;;;;;;;;;;;;;;20.34;60.04;100981.22;5030934;27;96831;-65
2022/09/11 01:45:03;;;;;;;8.00;4.90;;;;;;;20.27;60.15;100983.47;5031234;28;96845;-65
2022/09/11 01:47:34;;;;;;;7.63;5.03;;;;;;;20.48;59.57;100978.38;5026783;27;99164;-65
2022/09/11 01:50:05;;;;;;;7.70;5.65;;;;;;;20.39;59.66;100983.56;5030627;28;98830;-65
2022/09/11 01:52:39;;;;;;;9.80;4.68;;;;;;;20.28;60.03;100985.16;5030016;28;97159;-66
2022/09/11 01:55:13;;;;;;;8.13;5.40;;;;;;;20.28;59.95;100981.63;5031413;28;96782;-66
2022/09/11 01:57:44;;;;;;;6.55;4.40;;;;;;;20.07;60.71;100984.03;5029768;28;99053;-66
2022/09/11 02:00:17;;;;;;;8.98;4.95;;;;;;;20.46;59.64;100982.16;5028143;27;99069;-66
2022/09/11 02:02:48;;;;;;;9.73;4.78;;;;;;;20.29;60.12;100989.56;5027315;28;96969;-67
2022/09/11 02:05:18;;;;;;;4.90;4.40;;;;;;;20.42;59.57;100986.88;5029884;27;97835;-66
2022/09/11 02:07:50;;;;;;;7.22;4.43;;;;;;;20.50;58.88;100981.81;5026692;27;99188;-67
2022/09/11 02:10:23;;;;;;;5.35;4.20;;;;;;;20.30;59.68;100979.69;5026998;27;98813;-67
2022/09/11 02:12:56;;;;;;;7.43;4.13;;;;;;;20.36;59.70;100979.28;5026400;27;96803;-67
2022/09/11 02:15:31;;;;;;;4.57;4.10;;;;;;;20.26;59.73;100978.19;5030494;27;96750;-66
2022/09/11 02:18:02;;;;;;;7.78;4.75;;;;;;;20.32;59.46;100982.25;5030307;28;99454;-68
2022/09/11 02:20:31;;;;;;;7.95;4.13;;;;;;;20.43;59.03;100985.06;5026624;28;98923;-67
2022/09/11 02:23:01;;;;;;;9.32;4.65;;;;;;;20.38;59.34;100987.22;5027028;28;99045;-66
2022/09/11 02:25:28;;;;;;;6.45;4.60;;;;;;;20.20;59.72;100981.31;5027417;28;98333;-67
2022/09/11 02:27:54;;;;;;;9.02;5.13;;;;;;;20.06;60.20;100986.81;5028222;27;99512;-66
2022/09/11 02:30:21;;;;;;;10.70;5.30;;;;;;;20.26;59.42;100995.16;5024437;28;97983;-66
2022/09/11 02:32:52;;;;;;;8.20;4.60;;;;;;;20.32;59.11;100980.44;5031189;27;96827;-67
2022/09/11 02:35:18;;;;;;;7.43;5.30;;;;;;;20.39;58.94;100989.78;5027349;27;98436;-67
2022/09/11 02:37:52;;;;;;;9.50;5.13;;;;;;;20.42;58.98;100997.59;5031116;28;99086;-67
2022/09/11 02:40:31;;;;;;;8.27;5.45;;;;;;;20.34;59.30;101000.00;5027931;28;99179;-67
2022/09/11 02:43:18;;;;;;;7.88;5.05;;;;;;;20.35;59.03;100998.19;5030008;28;96838;-67
2022/09/11 02:45:54;;;;;;;9.05;4.32;;;;;;;20.26;59.21;101005.88;5022700;28;98527;-65
2022/09/11 02:48:39;;;;;;;8.30;4.65;;;;;;;20.16;59.22;100999.44;5026321;28;98076;-65
2022/09/11 02:51:18;;;;;;;8.23;5.03;;;;;;;20.25;58.95;101001.50;5028818;28;99064;-66
2022/09/11 02:53:52;;;;;;;10.32;4.53;;;;;;;20.12;59.61;101003.34;5027894;28;96814;-65
2022/09/11 02:56:26;;;;;;;6.78;4.65;;;;;;;19.96;60.23;101012.56;5028934;27;96761;-66
2022/09/11 02:58:55;;;;;;;8.45;5.03;;;;;;;19.99;59.96;101010.53;5025007;27;99616;-65
2022/09/11 03:01:22;;;;;;;9.45;5.95;;;;;;;20.07;59.46;101015.34;5033487;27;99055;-66
2022/09/11 03:03:50;;;;;;;9.75;5.47;;;;;;;20.11;59.41;101017.72;5032046;28;96816;-66
2022/09/11 03:06:19;;;;;;;9.77;5.90;;;;;;;20.04;59.67;101018.25;5033077;27;97193;-66
2022/09/11 03:08:47;;;;;;;10.10;5.93;;;;;;;20.14;59.46;101017.50;5034276;27;100746;-66
2022/09/11 03:11:16;;;;;;;7.60;5.35;;;;;;;20.20;59.20;101010.84;5029283;27;98833;-66
2022/09/11 03:13:43;;;;;;;14.52;6.28;;;;;;;20.27;58.99;101014.81;5031043;27;96925;-66
2022/09/11 03:16:11;;;;;;;14.88;6.65;;;;;;;20.24;58.62;101015.88;5029305;27;98589;-66
2022/09/11 03:18:37;;;;;;;7.45;5.97;;;;;;;20.16;59.06;101020.91;5033259;28;99486;-66
2022/09/11 03:21:05;;;;;;;13.18;6.95;;;;;;;20.26;58.57;101021.13;5027409;28;99031;-66
2022/09/11 03:23:32;;;;;;;9.00;6.85;;;;;;;20.24;58.40;101031.09;5031172;28;99367;-66
2022/09/11 03:26:00;;;;;;;11.15;6.07;;;;;;;20.38;58.34;101024.78;5031516;27;99003;-66
2022/09/11 03:28:27;;;;;;;9.55;6.50;;;;;;;20.45;58.02;101036.81;5034264;28;97862;-65
2022/09/11 03:30:53;;;;;;;11.35;6.88;;;;;;;20.31;58.15;101029.69;5027772;28;98775;-65
2022/09/11 03:33:19;;;;;;;10.07;8.15;;;;;;;20.12;58.21;101045.41;5030456;28;97994;-66
2022/09/11 03:35:46;;;;;;;11.57;7.18;;;;;;;20.02;58.37;101042.47;5033792;27;96891;-66
2022/09/11 03:38:14;;;;;;;20.17;14.55;;;;;;;20.00;58.84;101040.91;5033408;27;99301;-65
2022/09/11 03:40:43;;;;;;;14.43;9.77;;;;;;;20.02;58.97;101038.97;5033822;28;99045;-66
2022/09/11 03:43:12;;;;;;;13.13;9.65;;;;;;;19.94;58.99;101046.69;5034055;28;97182;-66
2022/09/11 03:45:45;;;;;;;16.30;12.40;;;;;;;19.67;59.57;101061.03;5033094;28;97079;-65
2022/09/11 03:48:18;;;;;;;23.95;15.48;;;;;;;19.68;59.69;101065.44;5032427;27;99346;-65
2022/09/11 03:50:48;;;;;;;19.35;12.43;;;;;;;19.47;60.44;101058.84;5032203;28;98815;-66
2022/09/11 03:53:18;;;;;;;27.98;16.25;;;;;;;19.38;60.74;101067.47;5029902;28;96885;-66
2022/09/11 03:55:45;;;;;;;25.67;17.95;;;;;;;19.19;61.15;101078.53;5031942;27;96757;-66
2022/09/11 03:58:12;;;;;;;26.83;18.35;;;;;;;19.38;60.84;101070.13;5033777;28;98984;-66
2022/09/11 04:00:41;;;;;;;29.27;18.20;;;;;;;19.68;59.61;101070.81;5032984;28;99231;-66
2022/09/11 04:03:09;;;;;;;20.80;13.57;;;;;;;19.34;60.62;101076.69;5029664;28;97849;-66
2022/09/11 04:05:35;;;;;;;18.88;13.23;;;;;;;19.40;60.19;101071.75;5028632;27;97092;-66
2022/09/11 04:08:02;;;;;;;16.20;12.18;;;;;;;19.37;60.40;101074.63;5029420;28;99007;-66
2022/09/11 04:10:34;;;;;;;17.73;12.05;;;;;;;19.16;60.79;101078.75;5026313;28;99009;-65
2022/09/11 04:13:00;;;;;;;17.50;10.77;;;;;;;19.37;60.82;101077.31;5029979;28;96931;-66
2022/09/11 04:15:26;;;;;;;17.13;10.98;;;;;;;19.46;60.63;101086.59;5031636;27;97027;-66
2022/09/11 04:17:53;;;;;;;21.02;11.10;;;;;;;19.70;60.06;101084.06;5028330;28;99090;-66
2022/09/11 04:20:19;;;;;;;18.45;11.32;;;;;;;19.48;60.98;101073.97;5031495;28;98784;-67
2022/09/11 04:22:46;;;;;;;15.82;10.88;;;;;;;19.92;59.61;101087.03;5032647;28;97637;-66
2022/09/11 04:25:13;;;;;;;17.90;10.40;;;;;;;19.75;60.31;101084.66;5030792;28;97257;-66
2022/09/11 04:27:40;;;;;;;19.52;10.98;;;;;;;19.85;60.04;101075.84;5031923;28;99278;-67
2022/09/11 04:30:08;;;;;;;22.50;11.98;;;;;;;19.71;60.47;101083.13;5030364;28;99018;-66
2022/09/11 04:32:34;;;;;;;22.67;13.00;;;;;;;19.90;60.06;101075.53;5029346;28;96782;-65
2022/09/11 04:35:02;;;;;;;28.80;15.00;;;;;;;19.24;62.37;101086.25;5027496;28;98511;-66
2022/09/11 04:37:29;;;;;;;30.90;15.77;;;;;;;19.48;61.54;101087.38;5029623;28;98899;-66
2022/09/11 04:39:57;;;;;;;26.85;14.43;;;;;;;19.43;62.06;101090.31;5030102;28;99128;-66
2022/09/11 04:42:25;;;;;;;27.67;13.27;;;;;;;19.69;61.34;101090.44;5030103;28;96818;-66
2022/09/11 04:44:53;;;;;;;23.45;12.77;;;;;;;19.93;60.22;101088.75;5028782;28;97976;-67
2022/09/11 04:47:19;;;;;;;21.50;13.23;;;;;;;19.41;61.78;101089.56;5027751;28;99070;-66
2022/09/11 04:49:46;;;;;;;20.17;11.68;;;;;;;19.27;62.58;101089.63;5030787;28;98812;-66
2022/09/11 04:52:13;;;;;;;24.98;12.50;;;;;;;19.05;63.59;101089.28;5028051;28;97579;-66
2022/09/11 04:54:41;;;;;;;25.73;13.52;;;;;;;18.98;63.88;101094.19;5029237;28;97488;-66
2022/09/11 04:57:10;;;;;;;26.30;13.77;;;;;;;18.58;65.27;101093.22;5027107;27;98699;-67
2022/09/11 04:59:36;;;;;;;25.58;12.90;;;;;;;18.93;64.38;101090.97;5028780;28;98913;-67
2022/09/11 05:02:04;;;;;;;26.38;12.95;;;;;;;19.18;63.57;101084.00;5026855;28;96867;-66
2022/09/11 05:04:30;;;;;;;22.30;12.95;;;;;;;19.30;62.83;101089.41;5029319;28;96935;-66
2022/09/11 05:06:56;;;;;;;24.10;12.73;;;;;;;19.65;61.90;101087.06;5032282;28;99248;-66
2022/09/11 05:09:23;;;;;;;22.05;13.57;;;;;;;19.44;62.71;101085.81;5030160;27;97794;-67
2022/09/11 05:11:49;;;;;;;23.65;13.45;;;;;;;19.45;62.65;101085.72;5028382;28;97567;-69
2022/09/11 05:14:17;;;;;;;24.40;13.80;;;;;;;19.55;62.63;101094.03;5032936;28;96693;-67
2022/09/11 05:16:44;;;;;;;23.90;13.90;;;;;;;19.55;62.75;101099.41;5029244;28;98934;-68
2022/09/11 05:19:16;;;;;;;23.55;13.50;;;;;;;19.60;62.12;101096.41;5029691;28;99464;-66
2022/09/11 05:21:42;;;;;;;24.50;13.85;;;;;;;19.83;61.83;101101.03;5031354;27;97124;-66
2022/09/11 05:24:12;;;;;;;23.25;13.48;;;;;;;19.95;61.42;101096.69;5029479;28;97505;-66
2022/09/11 05:26:40;;;;;;;24.27;14.77;;;;;;;19.70;62.51;101102.84;5026046;28;99119;-66
2022/09/11 05:29:11;;;;;;;26.52;15.13;;;;;;;19.99;60.99;101100.88;5032188;28;98755;-66
2022/09/11 05:31:41;;;;;;;27.88;15.98;;;;;;;20.27;60.15;101101.53;5027136;28;97726;-67
2022/09/11 05:34:07;;;;;;;25.42;15.70;;;;;;;20.39;59.98;101107.03;5032594;27;97267;-66
2022/09/11 05:36:35;;;;;;;30.30;15.10;;;;;;;19.92;61.50;101119.19;5031947;27;100569;-67
2022/09/11 05:39:03;;;;;;;26.63;15.18;;;;;;;20.36;60.42;101118.81;5028416;28;97691;-67
2022/09/11 05:41:31;;;;;;;27.83;16.75;;;;;;;20.28;60.03;101122.00;5033721;28;97069;-65
2022/09/11 05:43:58;;;;;;;29.35;16.10;;;;;;;20.34;60.16;101127.97;5032812;28;97152;-65
2022/09/11 05:46:27;;;;;;;27.25;16.42;;;;;;;20.33;60.07;101134.28;5022090;27;99512;-65
2022/09/11 05:48:53;;;;;;;31.50;17.60;;;;;;;20.50;59.84;101147.38;5024353;28;98914;-67
2022/09/11 05:51:21;;;;;;;32.13;17.25;;;;;;;20.43;60.16;101146.94;5030545;28;97481;-66
2022/09/11 05:53:56;;;;;;;35.67;18.05;;;;;;;20.49;59.93;101146.50;5029809;28;97246;-66
2022/09/11 05:56:24;;;;;;;32.58;17.27;;;;;;;20.26;60.90;101153.47;5030173;28;99404;-66
2022/09/11 05:58:51;;;;;;;29.45;16.95;;;;;;;20.59;59.92;101154.78;5032208;28;98859;-67
2022/09/11 06:01:19;;;;;;;37.03;19.35;;;;;;;20.50;60.18;101167.03;5030334;28;97569;-66
2022/09/11 06:03:48;;;;;;;41.60;19.88;;;;;;;20.56;59.99;101171.97;5029417;27;98100;-67
2022/09/11 06:06:16;;;;;;;41.40;20.73;;;;;;;20.18;61.07;101173.75;5029935;28;98350;-67
2022/09/11 06:08:43;;;;;;;33.13;19.48;;;;;;;20.11;61.33;101177.81;5031852;28;99050;-65
2022/09/11 06:11:13;;;;;;;35.95;18.42;;;;;;;20.34;60.64;101178.97;5027287;28;99120;-67
2022/09/11 06:13:43;;;;;;;34.10;19.42;;;;;;;20.53;60.35;101179.38;5022228;28;96893;-68
2022/09/11 06:16:10;;;;;;;35.40;19.10;;;;;;;20.44;60.16;101183.56;5026937;28;98342;-66
2022/09/11 06:18:37;;;;;;;36.75;18.63;;;;;;;20.81;59.25;101179.13;5027095;28;99303;-66
2022/09/11 06:21:06;;;;;;;33.45;18.60;;;;;;;21.04;58.65;101183.75;5025076;28;97135;-66
2022/09/11 06:23:34;;;;;;;35.42;18.33;;;;;;;20.52;60.02;101183.03;5026257;28;96829;-66
2022/09/11 06:26:04;;;;;;;32.88;17.75;;;;;;;20.36;60.63;101193.09;5029775;28;99034;-66
2022/09/11 06:28:35;;;;;;;36.22;19.00;;;;;;;20.02;62.20;101195.38;5031624;28;98881;-66
2022/09/11 06:31:02;;;;;;;30.02;17.42;;;;;;;19.93;62.26;101196.03;5026900;27;97030;-66
2022/09/11 06:33:31;;;;;;;29.88;16.52;;;;;;;19.94;62.36;101200.44;5029981;28;97104;-66
2022/09/11 06:35:58;;;;;;;29.38;17.60;;;;;;;20.13;61.90;101203.59;5029163;28;97707;-65
2022/09/11 06:38:28;;;;;;;28.85;17.35;;;;;;;20.31;61.29;101206.81;5028594;28;100716;-67
2022/09/11 06:40:55;;;;;;;33.70;17.23;;;;;;;20.21;61.14;101195.00;5029246;28;97102;-65
2022/09/11 06:43:23;;;;;;;33.40;18.08;;;;;;;20.40;60.78;101211.59;5026362;28;96837;-65
2022/09/11 06:45:51;;;;;;;33.60;17.77;;;;;;;20.72;59.80;101205.81;5025863;28;99707;-66
2022/09/11 06:48:18;;;;;;;36.15;19.45;;;;;;;20.92;58.70;101207.94;5028307;28;100029;-67
2022/09/11 06:50:45;;;;;;;30.60;18.38;;;;;;;21.06;58.51;101215.88;5028913;28;98504;-66
2022/09/11 06:53:13;;;;;;;35.40;21.60;;;;;;;21.20;58.04;101214.91;5030549;28;96948;-67
2022/09/11 06:55:40;;;;;;;33.75;21.52;;;;;;;21.15;57.53;101206.28;5028752;27;98088;-66
2022/09/11 06:58:07;;;;;;;28.65;19.10;;;;;;;21.20;57.90;101204.16;5029540;28;99265;-67
2022/09/11 07:00:39;;;;;;;34.25;20.38;;;;;;;21.08;57.63;101209.41;5029876;28;96879;-68
2022/09/11 07:03:10;;;;;;;34.65;19.75;;;;;;;21.39;56.88;101209.91;5029617;28;98002;-65
2022/09/11 07:05:36;;;;;;;28.58;17.50;;;;;;;21.34;56.65;101207.53;5027433;27;98893;-66
2022/09/11 07:08:03;;;;;;;31.98;18.17;;;;;;;21.38;56.97;101217.13;5028491;28;99112;-67
2022/09/11 07:10:32;;;;;;;26.10;17.45;;;;;;;21.23;57.05;101217.38;5021263;28;97120;-66
2022/09/11 07:12:59;;;;;;;21.65;14.27;;;;;;;21.15;56.95;101211.66;5023274;27;97398;-68
2022/09/11 07:15:25;;;;;;;23.67;14.00;;;;;;;21.28;56.94;101215.19;5030152;27;98863;-67
2022/09/11 07:17:53;;;;;;;24.15;14.80;;;;;;;21.29;56.40;101208.84;5021918;27;98814;-67
2022/09/11 07:20:22;;;;;;;21.50;13.70;;;;;;;21.43;56.13;101214.09;5030115;28;96712;-67
2022/09/11 07:22:48;;;;;;;23.08;14.15;;;;;;;21.59;55.86;101225.44;5025603;28;98533;-67
2022/09/11 07:25:18;;;;;;;23.40;15.85;;;;;;;21.71;55.53;101218.28;5028804;28;98930;-67
2022/09/11 07:27:47;;;;;;;24.50;15.40;;;;;;;21.65;55.60;101214.22;5028981;28;98830;-67
2022/09/11 07:30:17;;;;;;;29.48;18.92;;;;;;;22.00;54.48;101210.72;5029257;27;96806;-67
2022/09/11 07:32:43;;;;;;;23.27;14.40;;;;;;;21.78;54.64;101215.03;5023870;28;97066;-66
2022/09/11 07:35:10;;;;;;;22.15;13.75;;;;;;;21.73;55.21;101217.19;5028887;28;98178;-67
2022/09/11 07:37:38;;;;;;;22.13;14.98;;;;;;;21.55;55.53;101213.19;5030864;28;100356;-67
2022/09/11 07:40:05;;;;;;;24.30;15.40;;;;;;;21.20;56.80;101221.13;5026583;28;98805;-67
2022/09/11 07:42:32;;;;;;;20.63;13.52;;;;;;;21.57;55.68;101213.06;5028702;28;96988;-67
2022/09/11 07:44:59;;;;;;;19.50;13.45;;;;;;;21.98;55.16;101224.31;5024334;27;99419;-67
2022/09/11 07:47:25;;;;;;;19.08;12.40;;;;;;;21.90;55.07;101218.63;5033024;28;101822;-66
2022/09/11 07:49:52;;;;;;;21.38;14.25;;;;;;;22.70;53.20;101213.38;5032881;27;96781;-67
2022/09/11 07:52:27;;;;;;;19.77;12.70;;;;;;;22.28;53.68;101218.44;5025150;27;98326;-67
2022/09/11 07:54:55;;;;;;;18.97;13.37;;;;;;;22.54;53.23;101224.47;5027823;28;99086;-67
2022/09/11 07:57:28;;;;;;;17.48;11.63;;;;;;;22.23;54.09;101226.00;5031200;28;97452;-66
2022/09/11 07:59:55;;;;;;;19.70;13.65;;;;;;;22.44;53.24;101224.34;5029139;28;97206;-67
2022/09/11 08:02:24;;;;;;;20.17;13.45;;;;;;;22.06;54.61;101221.03;5026979;27;97736;-65
2022/09/11 08:04:51;;;;;;;18.08;11.68;;;;;;;22.57;53.36;101235.91;5028422;28;99191;-66
2022/09/11 08:07:26;;;;;;;16.10;11.68;;;;;;;22.61;52.84;101233.81;5024182;28;98991;-67
2022/09/11 08:10:10;;;;;;;17.70;12.07;;;;;;;22.87;52.44;101229.94;5025804;28;97123;-67
2022/09/11 08:12:41;;;;;;;22.80;11.90;;;;;;;22.76;52.21;101240.72;5025964;28;97631;-67
2022/09/11 08:15:20;;;;;;;18.58;11.23;;;;;;;23.31;50.95;101242.56;5026974;28;99399;-66
2022/09/11 08:17:50;;;;;;;20.60;11.70;;;;;;;23.30;51.06;101243.53;5031426;27;98804;-67
2022/09/11 08:20:21;;;;;;;18.25;12.90;;;;;;;23.74;50.23;101245.34;5026174;28;96871;-68
2022/09/11 08:22:48;;;;;;;17.67;11.50;;;;;;;22.93;51.65;101240.25;5029733;28;97441;-66
2022/09/11 08:25:15;;;;;;;15.45;10.77;;;;;;;22.41;53.29;101246.13;5027264;28;98929;-68
2022/09/11 08:27:44;;;;;;;19.92;12.13;;;;;;;23.16;51.75;101249.22;5025200;28;98776;-67
2022/09/11 08:30:12;;;;;;;17.60;12.38;;;;;;;23.52;50.48;101260.72;5030102;28;97192;-67
2022/09/11 08:32:38;;;;;;;16.17;10.52;;;;;;;22.61;52.00;101256.22;5027651;28;97175;-67
2022/09/11 08:35:08;;;;;;;16.77;11.30;;;;;;;22.95;52.04;101261.69;5025787;28;98978;-66
2022/09/11 08:37:40;;;;;;;15.10;10.45;;;;;;;22.77;52.16;101260.44;5028881;28;98825;-67
2022/09/11 08:40:10;;;;;;;17.05;11.65;;;;;;;22.87;52.02;101266.81;5026421;28;96905;-66
2022/09/11 08:42:41;;;;;;;15.68;10.57;;;;;;;22.92;51.74;101270.84;5023414;28;97625;-67
2022/09/11 08:45:21;;;;;;;16.95;10.68;;;;;;;22.92;52.05;101267.31;5024315;28;98430;-66
2022/09/11 08:47:58;;;;;;;18.35;11.10;;;;;;;22.55;53.05;101267.47;5024327;28;98821;-67
2022/09/11 08:50:28;;;;;;;17.95;10.93;;;;;;;22.89;52.12;101268.44;5030775;28;96758;-67
2022/09/11 08:53:04;;;;;;;16.98;10.50;;;;;;;23.04;51.72;101266.31;5029910;28;99014;-67
2022/09/11 08:55:35;;;;;;;19.55;11.77;;;;;;;23.31;50.67;101274.91;5018181;27;102256;-67
2022/09/11 08:58:15;;;;;;;18.63;11.00;;;;;;;23.30;50.99;101275.88;5020523;27;98910;-68
2022/09/11 09:00:56;;;;;;;17.70;10.75;;;;;;;22.95;51.55;101272.47;5022987;27;98888;-66
2022/09/11 09:03:41;;;;;;;18.58;10.70;;;;;;;23.17;51.25;101272.47;5024407;27;97678;-66
2022/09/11 09:06:46;;;;;;;15.50;9.98;;;;;;;23.15;50.85;101274.44;5026344;27;99326;-69
2022/09/11 09:09:26;;;;;;;21.27;10.82;;;;;;;23.34;50.60;101271.97;5024652;27;98958;-67
2022/09/11 09:12:08;;;;;;;18.38;11.23;;;;;;;23.23;50.44;101272.00;5023615;27;96756;-69
2022/09/11 09:15:05;;;;;;;13.68;9.98;;;;;;;23.23;50.60;101271.13;5021848;27;98939;-70
2022/09/11 09:17:49;;;;;;;;;;;;;;;23.39;50.61;101277.00;5028317;27;98869;-68
2022/09/11 09:20:23;;;;;;;21.50;12.27;;;;;;;23.50;50.54;101279.69;5026665;27;102207;-66
2022/09/11 09:23:04;;;;;;;19.48;11.95;;;;;;;23.15;51.08;101282.53;5024915;27;97175;-68
2022/09/11 09:25:36;;;;;;;19.50;11.25;;;;;;;23.27;50.97;101281.53;5017644;27;97166;-66
2022/09/11 09:28:08;;;;;;;16.77;10.75;;;;;;;23.45;50.67;101293.53;5022053;27;98952;-67
2022/09/11 09:30:43;;;;;;;15.68;11.13;;;;;;;23.18;50.82;101279.56;5021680;27;99192;-66
2022/09/11 09:36:16;;;;;;;21.10;9.65;;;;;;;23.57;50.07;101285.47;5025517;27;97174;-68
2022/09/11 09:38:50;;;;;;;15.35;10.70;;;;;;;24.01;48.72;101285.38;5021140;27;101224;-69
2022/09/11 09:41:42;;;;;;;13.13;8.93;;;;;;;24.08;48.29;101283.03;5023816;27;98108;-68
2022/09/11 09:44:22;;;;;;;15.68;9.38;;;;;;;24.05;48.40;101286.81;5034753;27;97181;-69
2022/09/11 09:46:59;;;;;;;13.98;9.68;;;;;;;24.60;47.30;101274.09;5024073;27;97469;-69
2022/09/11 09:49:37;;;;;;;15.13;9.38;;;;;;;24.44;47.31;101279.09;5019475;27;99322;-68
2022/09/11 09:52:16;;;;;;;15.85;9.75;;;;;;;24.66;46.47;101281.66;5016264;27;100955;-66
2022/09/11 09:54:50;;;;;;;14.15;9.15;;;;;;;24.96;45.77;101279.03;5024611;27;97564;-66
2022/09/11 09:57:18;;;;;;;12.65;8.32;;;;;;;24.59;46.24;101285.88;5024114;27;97187;-68
2022/09/11 09:59:50;;;;;;;13.70;9.95;;;;;;;24.07;47.33;101289.41;5023956;27;102158;-68
2022/09/11 10:02:37;;;;;;;15.25;9.98;;;;;;;23.87;48.32;101287.50;5028039;27;101813;-66
2022/09/11 10:05:17;;;;;;;16.08;9.75;;;;;;;23.92;48.94;101291.53;5028928;27;97427;-68
2022/09/11 10:07:48;;;;;;;16.05;9.15;;;;;;;23.65;49.25;101299.19;5021667;27;98398;-68
2022/09/11 10:10:25;;;;;;;14.88;9.63;;;;;;;23.96;48.92;101292.97;5024153;27;98600;-67
2022/09/11 10:12:53;;;;;;;16.05;9.85;;;;;;;24.38;48.07;101301.22;5015802;27;99274;-69
2022/09/11 10:15:22;;;;;;;14.20;9.38;;;;;;;24.55;47.19;101293.38;5030945;27;98694;-66
2022/09/11 10:17:52;;;;;;;14.60;9.50;;;;;;;24.22;48.04;101302.50;5030081;27;97030;-67
2022/09/11 10:20:27;;;;;;;14.00;8.77;;;;;;;24.43;47.06;101301.66;5042805;27;99434;-68
2022/09/11 10:22:55;;;;;;;18.00;9.02;;;;;;;24.12;48.43;101298.84;5031315;28;97608;-67
2022/09/11 10:25:25;;;;;;;14.50;9.65;;;;;;;24.13;47.56;101302.38;5026720;28;96668;-67
2022/09/11 10:28:03;;;;;;;15.05;8.95;;;;;;;23.75;48.33;101295.63;5026360;27;96783;-68
2022/09/11 10:30:37;;;;;;;13.70;8.20;;;;;;;24.25;47.35;101301.38;5030597;27;99894;-67
2022/09/11 10:33:15;;;;;;;12.25;8.23;;;;;;;24.31;46.94;101291.91;5026609;27;98767;-69
2022/09/11 10:35:51;;;;;;;12.57;8.40;;;;;;;24.63;46.33;101298.13;5026191;27;97215;-68
2022/09/11 10:38:29;;;;;;;12.13;8.63;;;;;;;24.81;46.06;101293.00;5019106;27;96957;-68
2022/09/11 10:41:02;;;;;;;13.90;8.20;;;;;;;25.14;45.75;101306.28;5025045;27;99093;-69
2022/09/11 10:43:39;;;;;;;13.75;8.60;;;;;;;25.29;44.73;101301.38;5024439;27;100152;-66
2022/09/11 10:46:23;;;;;;;11.82;7.80;;;;;;;25.35;44.15;101300.84;5025787;27;97788;-65
2022/09/11 10:48:54;;;;;;;15.77;7.80;;;;;;;25.41;43.67;101311.13;5024278;27;97421;-67
2022/09/11 10:51:23;;;;;;;10.93;6.80;;;;;;;25.33;43.44;101319.94;5029135;27;97825;-67
2022/09/11 10:54:18;;;;;;;11.07;7.03;;;;;;;25.39;42.95;101313.13;5025191;27;98829;-66
2022/09/11 10:57:02;;;;;;;9.23;6.15;;;;;;;24.79;43.76;101301.25;5021497;27;97841;-66
2022/09/11 10:59:41;;;;;;;6.13;5.32;;;;;;;24.78;44.07;101313.03;5021641;28;97227;-70
2022/09/11 11:02:22;;;;;;;8.38;6.05;;;;;;;24.22;45.95;101310.59;5018844;28;98192;-67
2022/09/11 11:04:55;;;;;;;12.32;8.10;;;;;;;24.09;46.36;101312.56;5021832;28;97852;-65
2022/09/11 11:07:39;;;;;;;10.93;7.90;;;;;;;23.59;48.49;101321.28;5024737;28;97176;-67
2022/09/11 11:10:23;;;;;;;13.85;8.38;;;;;;;23.50;50.02;101312.06;5026475;28;97694;-66
2022/09/11 11:13:05;;;;;;;12.90;8.82;;;;;;;23.63;49.80;101317.38;5021705;27;98335;-65
2022/09/11 11:15:49;;;;;;;11.77;8.40;;;;;;;23.70;50.18;101321.25;5020963;28;101559;-66
2022/09/11 11:18:30;;;;;;;14.52;8.85;;;;;;;23.72;50.46;101319.28;5022775;28;96908;-66
2022/09/11 11:21:13;;;;;;;10.70;7.63;;;;;;;23.58;50.30;101311.47;5023157;27;97456;-67
2022/09/11 11:24:00;;;;;;;15.18;7.88;;;;;;;23.75;50.05;101316.34;5026769;28;100903;-66
2022/09/11 11:26:49;;;;;;;12.40;8.40;;;;;;;23.78;50.16;101316.94;5025483;28;99031;-67
2022/09/11 11:29:36;;;;;;;11.00;6.90;;;;;;;24.18;48.89;101319.91;5025617;28;97374;-69
2022/09/11 11:32:29;;;;;;;12.15;8.13;;;;;;;24.79;47.00;101319.31;5024689;28;97828;-69
2022/09/11 11:35:21;;;;;;;11.48;7.82;;;;;;;24.50;47.35;101322.63;5027119;28;99343;-69
2022/09/11 11:37:49;;;;;;;9.10;7.00;;;;;;;24.29;47.44;101319.03;5026477;27;98852;-69